Big Bear Station Historical Data
Daily Summary for December 6, 2017 Units:  Metric    English   Both
« Previous Day
Next Day »
Daily Weekly Monthly Yearly Custom
  High: Low: Average:
Temperature: 8.2 °C -5.8 °C 0.4 °C
Dew Point: -12 °C -19.4 °C -15.3 °C
Humidity: 51 % 16 % 32 %
Wind Speed: 7.6 km/h 0 km/h 1.4 km/h
Wind Gust: -1607.7 km/h - -
Wind:- - SSW
Pressure: 1027.7 hPa 1023.6 hPa -
Precipitation: 0 mm    
Historical Graphs
 
 
Tabular Data for December 6, 2017
Time Temperature Dew Point Pressure Wind Wind Speed Wind Gust Humidity Rainfall Rate (Hourly)
00:14 -5 °C -17.2 °C 1023.9 hPa Calm   -1607.7 km/h 38 % 0 mm
00:29 -5.2 °C -17.3 °C 1023.9 hPa Calm   -1607.7 km/h 38 % 0 mm
00:45 -5.2 °C -17.1 °C 1023.9 hPa Calm   -1607.7 km/h 39 % 0 mm
01:00 -5.2 °C -16.7 °C 1023.9 hPa Calm   -1607.7 km/h 40 % 0 mm
01:15 -5.2 °C -16.2 °C 1023.9 hPa Calm   -1607.7 km/h 42 % 0 mm
01:30 -4.7 °C -16 °C 1023.9 hPa Calm   -1607.7 km/h 41 % 0 mm
01:46 -5 °C -16.2 °C 1023.9 hPa Calm   -1607.7 km/h 41 % 0 mm
02:01 -5.1 °C -16.3 °C 1023.9 hPa Calm   -1607.7 km/h 41 % 0 mm
02:16 -5.3 °C -16.5 °C 1023.9 hPa Calm   -1607.7 km/h 41 % 0 mm
02:31 -5.3 °C -16.5 °C 1023.9 hPa Calm   -1607.7 km/h 41 % 0 mm
02:46 -5.5 °C -16.1 °C 1023.9 hPa Calm   -1607.7 km/h 43 % 0 mm
03:02 -5.6 °C -15.9 °C 1023.9 hPa Calm   -1607.7 km/h 44 % 0 mm
03:17 -5.8 °C -15.1 °C 1023.6 hPa Calm   -1607.7 km/h 48 % 0 mm
03:32 -5.7 °C -14.3 °C 1023.6 hPa Calm   -1607.7 km/h 51 % 0 mm
04:02 -5.1 °C -14.4 °C 1023.6 hPa Calm   -1607.7 km/h 48 % 0 mm
04:18 -4.8 °C -15.4 °C 1023.9 hPa Calm   -1607.7 km/h 43 % 0 mm
04:33 -4.9 °C -15.8 °C 1023.9 hPa Calm   -1607.7 km/h 42 % 0 mm
04:48 -4.8 °C -15.2 °C 1023.6 hPa Calm   -1607.7 km/h 44 % 0 mm
05:03 -5.4 °C -14.4 °C 1023.9 hPa Calm   -1607.7 km/h 49 % 0 mm
05:18 -5 °C -13.8 °C 1023.9 hPa Calm   -1607.7 km/h 50 % 0 mm
05:34 -4.9 °C -14.2 °C 1023.9 hPa Calm   -1607.7 km/h 48 % 0 mm
05:49 -4.6 °C -13.7 °C 1024.3 hPa Calm   -1607.7 km/h 49 % 0 mm
06:04 -4.6 °C -13.7 °C 1024.3 hPa Calm   -1607.7 km/h 49 % 0 mm
06:19 -4.4 °C -14 °C 1024.6 hPa Calm   -1607.7 km/h 47 % 0 mm
06:35 -4.2 °C -14.9 °C 1024.6 hPa ESE 1.8 km/h -1607.7 km/h 43 % 0 mm
06:50 -3.8 °C -15.1 °C 1024.6 hPa Calm   -1607.7 km/h 41 % 0 mm
07:05 -3.3 °C -15.6 °C 1024.6 hPa Calm   -1607.7 km/h 38 % 0 mm
07:20 -2.5 °C -15.2 °C 1024.6 hPa Calm   -1607.7 km/h 37 % 0 mm
07:35 -1.9 °C -15.7 °C 1024.9 hPa Calm   -1607.7 km/h 34 % 0 mm
07:51 -1.7 °C -17.1 °C 1025.3 hPa Calm   -1607.7 km/h 30 % 0 mm
08:06 -1.6 °C -17.3 °C 1025.3 hPa Calm   -1607.7 km/h 29 % 0 mm
08:21 -0.6 °C -17.8 °C 1025.6 hPa NNE 2.7 km/h -1607.7 km/h 26 % 0 mm
08:36 0 °C -18.2 °C 1025.6 hPa Calm   -1607.7 km/h 24 % 0 mm
08:51 0.9 °C -18.5 °C 1025.6 hPa Calm   -1607.7 km/h 22 % 0 mm
09:07 1.8 °C -18.8 °C 1025.6 hPa NW 2.7 km/h -1607.7 km/h 20 % 0 mm
09:22 2.6 °C -19.4 °C 1025.6 hPa West 3.5 km/h -1607.7 km/h 18 % 0 mm
09:53 4.6 °C -19.1 °C 1026 hPa SE 1.8 km/h -1607.7 km/h 16 % 0 mm
10:08 4.5 °C -19.2 °C 1026 hPa ESE 7.6 km/h -1607.7 km/h 16 % 0 mm
10:23 4.9 °C -18.2 °C 1026 hPa NNE 2.7 km/h -1607.7 km/h 17 % 0 mm
10:38 5.3 °C -17.8 °C 1026 hPa WNW 3.5 km/h -1607.7 km/h 17 % 0 mm
10:53 6 °C -17.3 °C 1025.6 hPa NNW 5.1 km/h -1607.7 km/h 17 % 0 mm
11:09 6.2 °C -17.8 °C 1025.6 hPa NNE 3.5 km/h -1607.7 km/h 16 % 0 mm
11:24 6.3 °C -17.1 °C 1025.6 hPa North 6.8 km/h -1607.7 km/h 17 % 0 mm
11:39 6.4 °C -16.9 °C 1025.6 hPa NE 2.7 km/h -1607.7 km/h 17 % 0 mm
11:54 7.1 °C -16.3 °C 1025.3 hPa SSE 2.7 km/h -1607.7 km/h 17 % 0 mm
12:09 7.4 °C -15.4 °C 1025.3 hPa NNW 4.3 km/h -1607.7 km/h 18 % 0 mm
12:25 8.1 °C -14.8 °C 1025.3 hPa NW 4.3 km/h -1607.7 km/h 18 % 0 mm
12:40 8.2 °C -14.1 °C 1024.9 hPa North 2.7 km/h -1607.7 km/h 19 % 0 mm
12:55 8.2 °C -14.7 °C 1024.9 hPa SW 2.7 km/h -1607.7 km/h 18 % 0 mm
13:10 8.1 °C -14.8 °C 1024.9 hPa Calm   -1607.7 km/h 18 % 0 mm
13:26 7.8 °C -15.1 °C 1024.6 hPa East 2.7 km/h -1607.7 km/h 18 % 0 mm
13:41 7.8 °C -14.4 °C 1024.6 hPa NE 4.3 km/h -1607.7 km/h 19 % 0 mm
13:56 7.9 °C -14.3 °C 1024.6 hPa Calm   -1607.7 km/h 19 % 0 mm
14:11 7.3 °C -14.2 °C 1024.6 hPa ENE 3.5 km/h -1607.7 km/h 20 % 0 mm
14:26 6.9 °C -13.9 °C 1024.9 hPa Calm   -1607.7 km/h 21 % 0 mm
14:42 6.5 °C -14.3 °C 1024.9 hPa South 2.7 km/h -1607.7 km/h 21 % 0 mm
14:57 6 °C -14.2 °C 1024.9 hPa NW 2.7 km/h -1607.7 km/h 22 % 0 mm
15:12 5.6 °C -13.9 °C 1025.3 hPa Calm   -1607.7 km/h 23 % 0 mm
15:27 5.2 °C -14.3 °C 1025.3 hPa South 1.8 km/h -1607.7 km/h 23 % 0 mm
15:42 4.7 °C -14.7 °C 1025.3 hPa South 4.3 km/h -1607.7 km/h 23 % 0 mm
15:58 4 °C -15.3 °C 1025.6 hPa Calm   -1607.7 km/h 23 % 0 mm
16:13 3.4 °C -14.8 °C 1025.6 hPa NNW 3.5 km/h -1607.7 km/h 25 % 0 mm
16:28 2.9 °C -14.3 °C 1025.6 hPa NW 4.3 km/h -1607.7 km/h 27 % 0 mm
16:43 2.3 °C -14.4 °C 1025.6 hPa Calm   -1607.7 km/h 28 % 0 mm
16:58 1.6 °C -14.6 °C 1026 hPa Calm   -1607.7 km/h 29 % 0 mm
17:14 1.1 °C -13.8 °C 1026.3 hPa Calm   -1607.7 km/h 32 % 0 mm
17:29 0.7 °C -14.5 °C 1026 hPa Calm   -1607.7 km/h 31 % 0 mm
17:44 0.4 °C -14.4 °C 1026.6 hPa Calm   -1607.7 km/h 32 % 0 mm
17:59 0.9 °C -13.6 °C 1027 hPa SE 5.1 km/h -1607.7 km/h 33 % 0 mm
18:14 0.3 °C -13.8 °C 1026.6 hPa Calm   -1607.7 km/h 34 % 0 mm
18:30 0 °C -13.7 °C 1027 hPa Calm   -1607.7 km/h 35 % 0 mm
18:45 -0.2 °C -13.5 °C 1026.6 hPa Calm   -1607.7 km/h 36 % 0 mm
19:00 -0.2 °C -13.2 °C 1026.6 hPa NNW 3.5 km/h -1607.7 km/h 37 % 0 mm
19:15 0.2 °C -12.8 °C 1026.6 hPa SSE 4.3 km/h -1607.7 km/h 37 % 0 mm
19:30 0.6 °C -12.1 °C 1026.6 hPa ESE 2.7 km/h -1607.7 km/h 38 % 0 mm
19:46 0.4 °C -12 °C 1027 hPa Calm   -1607.7 km/h 39 % 0 mm
20:01 0.2 °C -12.4 °C 1027 hPa North 3.5 km/h -1607.7 km/h 38 % 0 mm
20:16 0.2 °C -12.4 °C 1027 hPa NE 2.7 km/h -1607.7 km/h 38 % 0 mm
20:31 0.2 °C -12.8 °C 1027 hPa Calm   -1607.7 km/h 37 % 0 mm
20:47 0.1 °C -12.9 °C 1026.6 hPa ESE 3.5 km/h -1607.7 km/h 37 % 0 mm
21:02 0.1 °C -12.9 °C 1026.6 hPa SW 6 km/h -1607.7 km/h 37 % 0 mm
21:17 0.9 °C -12.9 °C 1026.6 hPa Calm   -1607.7 km/h 35 % 0 mm
21:32 0.4 °C -13.7 °C 1027 hPa South 1.8 km/h -1607.7 km/h 34 % 0 mm
21:47 0.4 °C -14.1 °C 1027 hPa Calm   -1607.7 km/h 33 % 0 mm
22:18 -0.2 °C -14.9 °C 1027 hPa Calm   -1607.7 km/h 32 % 0 mm
22:33 -0.2 °C -15.3 °C 1027.3 hPa Calm   -1607.7 km/h 31 % 0 mm
22:48 -0.2 °C -15.3 °C 1027.3 hPa Calm   -1607.7 km/h 31 % 0 mm
23:03 0.1 °C -15.8 °C 1027.3 hPa SSE 6.8 km/h -1607.7 km/h 29 % 0 mm
23:19 0.1 °C -16.3 °C 1027.3 hPa South 3.5 km/h -1607.7 km/h 28 % 0 mm
23:34 -0.2 °C -16.6 °C 1027.3 hPa SSW 2.7 km/h -1607.7 km/h 28 % 0 mm
23:49 -0.6 °C -16.5 °C 1027.7 hPa Calm   -1607.7 km/h 29 % 0 mm
Big Bear CA Weather
Compliments of Weather Underground - 1.5 mb